sensor_id;sensor_type;location;lat;lon;timestamp;pressure;altitude;pressure_sealevel;temperature;humidity
74958;BME280;63741;42.624;26.276;2023-12-28T00:02:15;100874.72;;;8.63;59.26
74958;BME280;63741;42.624;26.276;2023-12-28T00:04:42;100884.84;;;8.17;61.68
74958;BME280;63741;42.624;26.276;2023-12-28T00:07:09;100879.88;;;8.66;61.65
74958;BME280;63741;42.624;26.276;2023-12-28T00:09:36;100890.34;;;8.85;59.52
74958;BME280;63741;42.624;26.276;2023-12-28T00:12:04;100889.03;;;8.76;60.17
74958;BME280;63741;42.624;26.276;2023-12-28T00:14:31;100887.31;;;8.75;59.60
74958;BME280;63741;42.624;26.276;2023-12-28T00:16:58;100885.75;;;8.71;60.06
74958;BME280;63741;42.624;26.276;2023-12-28T00:19:25;100895.75;;;8.65;60.45
74958;BME280;63741;42.624;26.276;2023-12-28T00:21:53;100896.97;;;8.40;61.75
74958;BME280;63741;42.624;26.276;2023-12-28T00:24:20;100903.09;;;8.41;62.03
74958;BME280;63741;42.624;26.276;2023-12-28T00:26:48;100901.56;;;8.54;60.72
74958;BME280;63741;42.624;26.276;2023-12-28T00:29:15;100912.31;;;8.49;60.78
74958;BME280;63741;42.624;26.276;2023-12-28T00:31:42;100915.50;;;8.56;60.30
74958;BME280;63741;42.624;26.276;2023-12-28T00:34:09;100917.88;;;8.43;61.32
74958;BME280;63741;42.624;26.276;2023-12-28T00:36:37;100920.78;;;8.56;61.45
74958;BME280;63741;42.624;26.276;2023-12-28T00:39:04;100914.91;;;8.68;61.66
74958;BME280;63741;42.624;26.276;2023-12-28T00:41:31;100919.44;;;8.66;61.34
74958;BME280;63741;42.624;26.276;2023-12-28T00:43:58;100928.50;;;8.23;63.12
74958;BME280;63741;42.624;26.276;2023-12-28T00:46:25;100930.06;;;7.89;61.02
74958;BME280;63741;42.624;26.276;2023-12-28T00:48:52;100931.22;;;7.63;61.86
74958;BME280;63741;42.624;26.276;2023-12-28T00:51:20;100929.47;;;7.23;62.21
74958;BME280;63741;42.624;26.276;2023-12-28T00:53:48;100928.69;;;7.21;63.29
74958;BME280;63741;42.624;26.276;2023-12-28T00:56:15;100930.81;;;7.33;62.17
74958;BME280;63741;42.624;26.276;2023-12-28T00:58:43;100938.03;;;7.48;62.20
74958;BME280;63741;42.624;26.276;2023-12-28T01:01:10;100937.06;;;7.30;62.98
74958;BME280;63741;42.624;26.276;2023-12-28T01:03:39;100943.63;;;7.61;62.30
74958;BME280;63741;42.624;26.276;2023-12-28T01:06:06;100945.94;;;7.48;62.81
74958;BME280;63741;42.624;26.276;2023-12-28T01:08:33;100947.69;;;7.27;63.64
74958;BME280;63741;42.624;26.276;2023-12-28T01:11:03;100944.94;;;7.30;62.73
74958;BME280;63741;42.624;26.276;2023-12-28T01:13:31;100944.94;;;7.30;64.12
74958;BME280;63741;42.624;26.276;2023-12-28T01:15:58;100939.72;;;7.49;62.74
74958;BME280;63741;42.624;26.276;2023-12-28T01:18:25;100949.38;;;7.50;62.92
74958;BME280;63741;42.624;26.276;2023-12-28T01:20:53;100943.88;;;6.94;64.88
74958;BME280;63741;42.624;26.276;2023-12-28T01:23:20;100943.16;;;6.90;65.63
74958;BME280;63741;42.624;26.276;2023-12-28T01:25:47;100943.50;;;7.03;65.10
74958;BME280;63741;42.624;26.276;2023-12-28T01:28:14;100939.94;;;7.04;64.72
74958;BME280;63741;42.624;26.276;2023-12-28T01:30:41;100943.09;;;7.12;64.62
74958;BME280;63741;42.624;26.276;2023-12-28T01:33:08;100945.75;;;7.12;64.49
74958;BME280;63741;42.624;26.276;2023-12-28T01:35:36;100950.03;;;7.15;64.15
74958;BME280;63741;42.624;26.276;2023-12-28T01:38:03;100947.31;;;7.16;64.47
74958;BME280;63741;42.624;26.276;2023-12-28T01:40:30;100945.38;;;6.99;65.16
74958;BME280;63741;42.624;26.276;2023-12-28T01:42:57;100946.69;;;6.89;64.78
74958;BME280;63741;42.624;26.276;2023-12-28T01:45:24;100935.53;;;6.84;65.23
74958;BME280;63741;42.624;26.276;2023-12-28T01:47:56;100939.41;;;6.96;64.34
74958;BME280;63741;42.624;26.276;2023-12-28T01:50:24;100949.75;;;6.78;65.61
74958;BME280;63741;42.624;26.276;2023-12-28T01:52:52;100946.94;;;6.83;66.08
74958;BME280;63741;42.624;26.276;2023-12-28T01:55:20;100953.44;;;6.74;67.90
74958;BME280;63741;42.624;26.276;2023-12-28T01:57:48;100947.28;;;6.96;65.61
74958;BME280;63741;42.624;26.276;2023-12-28T02:00:15;100950.13;;;6.69;66.95
74958;BME280;63741;42.624;26.276;2023-12-28T02:02:43;100947.75;;;6.85;66.71
74958;BME280;63741;42.624;26.276;2023-12-28T02:05:11;100953.00;;;6.63;66.94
74958;BME280;63741;42.624;26.276;2023-12-28T02:07:42;100948.41;;;6.90;65.62
74958;BME280;63741;42.624;26.276;2023-12-28T02:10:09;100947.38;;;6.28;66.65
74958;BME280;63741;42.624;26.276;2023-12-28T02:12:36;100949.16;;;6.28;67.55
74958;BME280;63741;42.624;26.276;2023-12-28T02:15:03;100942.75;;;6.35;66.75
74958;BME280;63741;42.624;26.276;2023-12-28T02:17:38;100948.06;;;6.10;66.76
74958;BME280;63741;42.624;26.276;2023-12-28T02:20:10;100949.06;;;6.07;68.31
74958;BME280;63741;42.624;26.276;2023-12-28T02:22:38;100950.81;;;6.30;67.33
74958;BME280;63741;42.624;26.276;2023-12-28T02:25:08;100949.88;;;6.31;66.99
74958;BME280;63741;42.624;26.276;2023-12-28T02:27:42;100942.94;;;6.30;67.48
74958;BME280;63741;42.624;26.276;2023-12-28T02:30:11;100945.69;;;6.49;66.08
74958;BME280;63741;42.624;26.276;2023-12-28T02:38:13;100949.97;;;6.52;67.27
74958;BME280;63741;42.624;26.276;2023-12-28T02:40:41;100949.63;;;6.38;67.79
74958;BME280;63741;42.624;26.276;2023-12-28T02:43:11;100951.47;;;6.36;68.07
74958;BME280;63741;42.624;26.276;2023-12-28T02:45:39;100958.06;;;6.24;66.53
74958;BME280;63741;42.624;26.276;2023-12-28T02:48:07;100957.41;;;6.41;67.49
74958;BME280;63741;42.624;26.276;2023-12-28T02:50:35;100956.41;;;5.98;67.28
74958;BME280;63741;42.624;26.276;2023-12-28T02:53:02;100950.78;;;5.60;67.68
74958;BME280;63741;42.624;26.276;2023-12-28T02:55:29;100957.97;;;5.55;68.97
74958;BME280;63741;42.624;26.276;2023-12-28T02:57:57;100967.16;;;5.67;68.28
74958;BME280;63741;42.624;26.276;2023-12-28T03:00:28;100962.78;;;5.67;69.63
74958;BME280;63741;42.624;26.276;2023-12-28T03:02:56;100963.00;;;5.84;67.72
74958;BME280;63741;42.624;26.276;2023-12-28T03:05:23;100959.34;;;6.14;65.79
74958;BME280;63741;42.624;26.276;2023-12-28T03:07:50;100957.72;;;5.86;66.14
74958;BME280;63741;42.624;26.276;2023-12-28T03:10:17;100955.75;;;5.68;67.65
74958;BME280;63741;42.624;26.276;2023-12-28T03:12:45;100955.09;;;5.61;68.47
74958;BME280;63741;42.624;26.276;2023-12-28T03:15:12;100955.34;;;5.78;68.11
74958;BME280;63741;42.624;26.276;2023-12-28T03:17:39;100951.88;;;5.78;67.68
74958;BME280;63741;42.624;26.276;2023-12-28T03:20:09;100954.44;;;5.79;66.91
74958;BME280;63741;42.624;26.276;2023-12-28T03:22:37;100964.09;;;6.04;66.95
74958;BME280;63741;42.624;26.276;2023-12-28T03:25:04;100950.59;;;6.13;66.52
74958;BME280;63741;42.624;26.276;2023-12-28T03:27:31;100943.66;;;5.64;68.96
74958;BME280;63741;42.624;26.276;2023-12-28T03:29:58;100946.91;;;5.70;69.17
74958;BME280;63741;42.624;26.276;2023-12-28T03:32:26;100949.75;;;5.88;67.01
74958;BME280;63741;42.624;26.276;2023-12-28T03:34:52;100944.09;;;6.00;67.05
74958;BME280;63741;42.624;26.276;2023-12-28T03:37:19;100948.22;;;5.33;69.06
74958;BME280;63741;42.624;26.276;2023-12-28T03:39:46;100951.69;;;5.59;69.24
74958;BME280;63741;42.624;26.276;2023-12-28T03:42:14;100943.91;;;5.81;68.19
74958;BME280;63741;42.624;26.276;2023-12-28T03:44:41;100946.50;;;5.32;69.30
74958;BME280;63741;42.624;26.276;2023-12-28T03:47:09;100951.19;;;5.73;68.12
74958;BME280;63741;42.624;26.276;2023-12-28T03:49:36;100948.22;;;5.33;69.31
74958;BME280;63741;42.624;26.276;2023-12-28T03:52:03;100952.13;;;5.47;69.76
74958;BME280;63741;42.624;26.276;2023-12-28T03:54:31;100954.66;;;5.50;68.58
74958;BME280;63741;42.624;26.276;2023-12-28T03:56:58;100954.53;;;5.53;69.68
74958;BME280;63741;42.624;26.276;2023-12-28T03:59:24;100962.44;;;5.76;69.52
74958;BME280;63741;42.624;26.276;2023-12-28T04:01:52;100956.41;;;5.98;68.65
74958;BME280;63741;42.624;26.276;2023-12-28T04:04:20;100961.91;;;5.92;70.29
74958;BME280;63741;42.624;26.276;2023-12-28T04:06:48;100958.63;;;5.85;70.00
74958;BME280;63741;42.624;26.276;2023-12-28T04:09:15;100964.47;;;5.45;74.36
74958;BME280;63741;42.624;26.276;2023-12-28T04:11:45;100973.97;;;5.72;71.30
74958;BME280;63741;42.624;26.276;2023-12-28T04:14:13;100971.44;;;5.69;70.80
74958;BME280;63741;42.624;26.276;2023-12-28T04:16:40;100966.47;;;5.62;71.63
74958;BME280;63741;42.624;26.276;2023-12-28T04:19:08;100968.22;;;5.61;72.00
74958;BME280;63741;42.624;26.276;2023-12-28T04:21:35;100971.13;;;5.53;71.11
74958;BME280;63741;42.624;26.276;2023-12-28T04:24:03;100972.13;;;5.74;70.56
74958;BME280;63741;42.624;26.276;2023-12-28T04:26:30;100974.47;;;5.58;71.82
74958;BME280;63741;42.624;26.276;2023-12-28T04:28:57;100967.53;;;5.56;70.86
74958;BME280;63741;42.624;26.276;2023-12-28T04:31:24;100972.75;;;5.32;71.39
74958;BME280;63741;42.624;26.276;2023-12-28T04:33:52;100957.47;;;5.19;73.22
74958;BME280;63741;42.624;26.276;2023-12-28T04:36:19;100973.00;;;5.25;73.44
74958;BME280;63741;42.624;26.276;2023-12-28T04:38:47;100969.56;;;5.48;73.29
74958;BME280;63741;42.624;26.276;2023-12-28T04:41:14;100962.44;;;5.26;72.79
74958;BME280;63741;42.624;26.276;2023-12-28T04:43:41;100958.97;;;5.26;71.78
74958;BME280;63741;42.624;26.276;2023-12-28T04:46:08;100956.56;;;5.20;73.11
74958;BME280;63741;42.624;26.276;2023-12-28T04:48:35;100955.72;;;5.19;73.50
74958;BME280;63741;42.624;26.276;2023-12-28T04:51:04;100958.97;;;5.51;73.42
74958;BME280;63741;42.624;26.276;2023-12-28T04:53:31;100964.03;;;5.32;72.70
74958;BME280;63741;42.624;26.276;2023-12-28T04:55:59;100961.97;;;5.65;71.98
74958;BME280;63741;42.624;26.276;2023-12-28T04:58:26;100956.34;;;5.51;70.95
74958;BME280;63741;42.624;26.276;2023-12-28T05:00:53;100961.63;;;5.74;71.36
74958;BME280;63741;42.624;26.276;2023-12-28T05:03:20;100956.91;;;5.84;71.33
74958;BME280;63741;42.624;26.276;2023-12-28T05:05:47;100961.53;;;5.77;71.20
74958;BME280;63741;42.624;26.276;2023-12-28T05:08:15;100958.50;;;5.88;69.30
74958;BME280;63741;42.624;26.276;2023-12-28T05:10:42;100954.94;;;5.66;69.87
74958;BME280;63741;42.624;26.276;2023-12-28T05:13:10;100962.28;;;5.56;70.07
74958;BME280;63741;42.624;26.276;2023-12-28T05:15:37;100957.97;;;5.55;71.79
74958;BME280;63741;42.624;26.276;2023-12-28T05:18:04;100961.56;;;5.27;72.12
74958;BME280;63741;42.624;26.276;2023-12-28T05:20:34;100959.94;;;5.48;70.79
74958;BME280;63741;42.624;26.276;2023-12-28T05:23:01;100961.09;;;5.40;72.08
74958;BME280;63741;42.624;26.276;2023-12-28T05:25:28;100963.84;;;5.37;72.08
74958;BME280;63741;42.624;26.276;2023-12-28T05:27:54;100960.72;;;5.00;72.20
74958;BME280;63741;42.624;26.276;2023-12-28T05:30:22;100965.00;;;5.03;73.33
74958;BME280;63741;42.624;26.276;2023-12-28T05:32:49;100961.66;;;5.24;75.14
74958;BME280;63741;42.624;26.276;2023-12-28T05:35:16;100963.84;;;5.37;73.92
74958;BME280;63741;42.624;26.276;2023-12-28T05:37:43;100966.03;;;5.24;74.87
74958;BME280;63741;42.624;26.276;2023-12-28T05:40:11;100963.06;;;5.83;74.07
74958;BME280;63741;42.624;26.276;2023-12-28T05:42:38;100968.03;;;5.67;73.57
74958;BME280;63741;42.624;26.276;2023-12-28T05:45:05;100967.22;;;5.40;73.80
74958;BME280;63741;42.624;26.276;2023-12-28T05:47:32;100970.91;;;5.60;73.90
74958;BME280;63741;42.624;26.276;2023-12-28T05:50:00;100972.09;;;5.51;73.91
74958;BME280;63741;42.624;26.276;2023-12-28T05:52:27;100979.06;;;5.52;74.84
74958;BME280;63741;42.624;26.276;2023-12-28T05:54:54;100981.53;;;5.56;72.76
74958;BME280;63741;42.624;26.276;2023-12-28T05:57:23;100985.13;;;5.54;73.75
74958;BME280;63741;42.624;26.276;2023-12-28T05:59:52;100977.41;;;5.49;73.28
74958;BME280;63741;42.624;26.276;2023-12-28T06:02:18;100978.47;;;5.44;72.89
74958;BME280;63741;42.624;26.276;2023-12-28T06:04:45;100978.63;;;5.64;71.95
74958;BME280;63741;42.624;26.276;2023-12-28T06:07:13;100984.06;;;6.08;71.65
74958;BME280;63741;42.624;26.276;2023-12-28T06:09:40;100976.56;;;6.66;69.01
74958;BME280;63741;42.624;26.276;2023-12-28T06:12:07;100980.88;;;7.11;67.85
74958;BME280;63741;42.624;26.276;2023-12-28T06:14:34;100980.53;;;7.80;65.19
74958;BME280;63741;42.624;26.276;2023-12-28T06:17:01;100988.50;;;8.37;63.31
74958;BME280;63741;42.624;26.276;2023-12-28T06:19:27;100978.00;;;8.73;61.89
74958;BME280;63741;42.624;26.276;2023-12-28T06:21:54;100985.66;;;9.48;58.47
74958;BME280;63741;42.624;26.276;2023-12-28T06:24:22;100979.66;;;9.10;58.92
74958;BME280;63741;42.624;26.276;2023-12-28T06:26:49;100972.69;;;9.44;58.58
74958;BME280;63741;42.624;26.276;2023-12-28T06:29:16;100975.91;;;9.83;57.66
74958;BME280;63741;42.624;26.276;2023-12-28T06:31:42;100986.25;;;10.04;58.12
74958;BME280;63741;42.624;26.276;2023-12-28T06:34:10;100982.00;;;10.01;57.80
74958;BME280;63741;42.624;26.276;2023-12-28T06:36:37;100984.88;;;9.97;58.08
74958;BME280;63741;42.624;26.276;2023-12-28T06:39:04;100980.81;;;9.74;57.44
74958;BME280;63741;42.624;26.276;2023-12-28T06:41:31;100985.72;;;8.95;60.05
74958;BME280;63741;42.624;26.276;2023-12-28T06:43:58;100980.22;;;8.63;61.13
74958;BME280;63741;42.624;26.276;2023-12-28T06:46:25;100979.19;;;8.84;60.60
74958;BME280;63741;42.624;26.276;2023-12-28T06:48:52;100983.25;;;9.09;60.46
74958;BME280;63741;42.624;26.276;2023-12-28T06:51:19;100983.88;;;9.31;60.14
74958;BME280;63741;42.624;26.276;2023-12-28T06:53:48;100980.53;;;9.45;59.87
74958;BME280;63741;42.624;26.276;2023-12-28T06:56:16;100973.72;;;9.92;58.62
74958;BME280;63741;42.624;26.276;2023-12-28T06:58:43;100983.63;;;9.71;58.95
74958;BME280;63741;42.624;26.276;2023-12-28T07:01:11;100978.19;;;9.74;59.22
74958;BME280;63741;42.624;26.276;2023-12-28T07:03:40;100978.25;;;10.21;59.01
74958;BME280;63741;42.624;26.276;2023-12-28T07:06:07;100976.16;;;9.95;58.68
74958;BME280;63741;42.624;26.276;2023-12-28T07:08:35;100978.34;;;10.20;57.68
74958;BME280;63741;42.624;26.276;2023-12-28T07:11:03;100978.16;;;10.07;57.49
74958;BME280;63741;42.624;26.276;2023-12-28T07:13:31;100974.06;;;10.17;59.38
74958;BME280;63741;42.624;26.276;2023-12-28T07:15:59;100974.81;;;10.52;57.57
74958;BME280;63741;42.624;26.276;2023-12-28T07:18:27;100980.34;;;10.79;56.82
74958;BME280;63741;42.624;26.276;2023-12-28T07:20:56;100979.97;;;11.01;55.98
74958;BME280;63741;42.624;26.276;2023-12-28T07:23:23;100977.69;;;10.95;56.62
74958;BME280;63741;42.624;26.276;2023-12-28T07:25:50;100989.53;;;11.34;54.43
74958;BME280;63741;42.624;26.276;2023-12-28T07:28:17;100997.59;;;11.47;55.82
74958;BME280;63741;42.624;26.276;2023-12-28T07:30:44;100995.91;;;11.46;54.84
74958;BME280;63741;42.624;26.276;2023-12-28T07:33:11;100994.59;;;11.53;54.47
74958;BME280;63741;42.624;26.276;2023-12-28T07:35:39;101005.63;;;11.75;54.20
74958;BME280;63741;42.624;26.276;2023-12-28T07:38:06;101004.75;;;11.30;54.62
74958;BME280;63741;42.624;26.276;2023-12-28T07:40:33;100992.38;;;11.31;55.59
74958;BME280;63741;42.624;26.276;2023-12-28T07:43:01;101002.19;;;11.73;53.95
74958;BME280;63741;42.624;26.276;2023-12-28T07:45:28;101008.34;;;11.74;54.42
74958;BME280;63741;42.624;26.276;2023-12-28T07:47:56;101008.91;;;11.64;54.10
74958;BME280;63741;42.624;26.276;2023-12-28T07:50:24;101009.34;;;12.30;53.67
74958;BME280;63741;42.624;26.276;2023-12-28T07:52:51;101008.13;;;11.93;52.73
74958;BME280;63741;42.624;26.276;2023-12-28T07:55:18;101006.91;;;11.98;53.37
74958;BME280;63741;42.624;26.276;2023-12-28T07:57:45;101013.44;;;12.21;53.32
74958;BME280;63741;42.624;26.276;2023-12-28T08:00:12;101016.00;;;12.37;52.34
74958;BME280;63741;42.624;26.276;2023-12-28T08:02:39;101024.09;;;12.48;51.83
74958;BME280;63741;42.624;26.276;2023-12-28T08:05:06;101016.41;;;12.58;51.44
74958;BME280;63741;42.624;26.276;2023-12-28T08:07:33;101010.78;;;13.04;52.42
74958;BME280;63741;42.624;26.276;2023-12-28T08:10:01;101006.47;;;12.88;51.48
74958;BME280;63741;42.624;26.276;2023-12-28T08:12:28;101008.00;;;12.51;51.70
74958;BME280;63741;42.624;26.276;2023-12-28T08:14:55;101007.97;;;12.65;51.86
74958;BME280;63741;42.624;26.276;2023-12-28T08:17:22;101005.75;;;12.72;50.62
74958;BME280;63741;42.624;26.276;2023-12-28T08:19:50;101006.03;;;12.82;51.29
74958;BME280;63741;42.624;26.276;2023-12-28T08:22:17;101006.97;;;12.81;53.33
74958;BME280;63741;42.624;26.276;2023-12-28T08:24:45;101007.56;;;12.72;50.98
74958;BME280;63741;42.624;26.276;2023-12-28T08:27:13;100999.69;;;12.70;50.76
74958;BME280;63741;42.624;26.276;2023-12-28T08:29:40;100988.94;;;13.13;50.79
74958;BME280;63741;42.624;26.276;2023-12-28T08:32:09;100996.31;;;12.68;51.52
74958;BME280;63741;42.624;26.276;2023-12-28T08:34:37;100995.78;;;13.03;50.53
74958;BME280;63741;42.624;26.276;2023-12-28T08:37:05;100990.31;;;13.19;50.57
74958;BME280;63741;42.624;26.276;2023-12-28T08:39:32;101003.59;;;13.19;51.05
74958;BME280;63741;42.624;26.276;2023-12-28T08:41:59;101001.03;;;13.57;50.57
74958;BME280;63741;42.624;26.276;2023-12-28T08:44:26;101007.09;;;13.46;49.75
74958;BME280;63741;42.624;26.276;2023-12-28T08:46:53;101002.88;;;13.69;49.33
74958;BME280;63741;42.624;26.276;2023-12-28T08:49:20;101000.63;;;13.63;48.91
74958;BME280;63741;42.624;26.276;2023-12-28T08:51:49;101004.69;;;13.94;48.10
74958;BME280;63741;42.624;26.276;2023-12-28T08:54:17;100992.22;;;13.82;48.66
74958;BME280;63741;42.624;26.276;2023-12-28T08:56:44;100990.41;;;14.08;49.06
74958;BME280;63741;42.624;26.276;2023-12-28T08:59:15;100992.31;;;14.19;48.70
74958;BME280;63741;42.624;26.276;2023-12-28T09:01:42;100989.41;;;14.34;48.00
74958;BME280;63741;42.624;26.276;2023-12-28T09:04:09;100988.13;;;14.40;47.62
74958;BME280;63741;42.624;26.276;2023-12-28T09:06:35;100983.75;;;14.52;48.00
74958;BME280;63741;42.624;26.276;2023-12-28T09:09:03;100984.28;;;14.57;47.39
74958;BME280;63741;42.624;26.276;2023-12-28T09:11:30;100978.19;;;14.55;47.88
74958;BME280;63741;42.624;26.276;2023-12-28T09:13:57;100967.91;;;14.74;47.52
74958;BME280;63741;42.624;26.276;2023-12-28T09:16:24;100962.91;;;14.94;47.59
74958;BME280;63741;42.624;26.276;2023-12-28T09:18:51;100961.44;;;15.13;46.29
74958;BME280;63741;42.624;26.276;2023-12-28T09:21:19;100964.16;;;15.01;46.61
74958;BME280;63741;42.624;26.276;2023-12-28T09:23:46;100947.63;;;14.84;47.60
74958;BME280;63741;42.624;26.276;2023-12-28T09:26:12;100949.94;;;14.89;47.09
74958;BME280;63741;42.624;26.276;2023-12-28T09:28:39;100947.72;;;15.07;47.55
74958;BME280;63741;42.624;26.276;2023-12-28T09:31:07;100942.19;;;15.79;45.76
74958;BME280;63741;42.624;26.276;2023-12-28T09:33:35;100941.22;;;15.69;46.18
74958;BME280;63741;42.624;26.276;2023-12-28T09:36:05;100931.38;;;16.03;45.01
74958;BME280;63741;42.624;26.276;2023-12-28T09:38:33;100920.44;;;16.39;44.19
74958;BME280;63741;42.624;26.276;2023-12-28T09:41:14;100927.25;;;16.32;44.79
74958;BME280;63741;42.624;26.276;2023-12-28T09:43:50;100919.69;;;16.49;43.71
74958;BME280;63741;42.624;26.276;2023-12-28T09:46:23;100916.97;;;16.60;43.07
74958;BME280;63741;42.624;26.276;2023-12-28T09:48:50;100903.13;;;16.55;43.54
74958;BME280;63741;42.624;26.276;2023-12-28T09:51:20;100902.78;;;16.91;43.32
74958;BME280;63741;42.624;26.276;2023-12-28T09:53:48;100906.91;;;16.96;43.77
74958;BME280;63741;42.624;26.276;2023-12-28T09:56:16;100904.56;;;17.23;42.36
74958;BME280;63741;42.624;26.276;2023-12-28T09:58:44;100905.03;;;17.07;42.59
74958;BME280;63741;42.624;26.276;2023-12-28T10:01:14;100893.03;;;17.02;42.42
74958;BME280;63741;42.624;26.276;2023-12-28T10:03:41;100884.13;;;16.80;43.03
74958;BME280;63741;42.624;26.276;2023-12-28T10:06:08;100881.84;;;16.64;43.60
74958;BME280;63741;42.624;26.276;2023-12-28T10:08:36;100889.97;;;16.74;42.98
74958;BME280;63741;42.624;26.276;2023-12-28T10:11:04;100884.63;;;17.06;42.92
74958;BME280;63741;42.624;26.276;2023-12-28T10:13:32;100880.03;;;17.18;42.68
74958;BME280;63741;42.624;26.276;2023-12-28T10:16:00;100866.69;;;16.97;41.92
74958;BME280;63741;42.624;26.276;2023-12-28T10:18:27;100870.66;;;17.03;42.55
74958;BME280;63741;42.624;26.276;2023-12-28T10:20:54;100866.88;;;17.26;42.75
74958;BME280;63741;42.624;26.276;2023-12-28T10:23:21;100863.88;;;16.99;43.09
74958;BME280;63741;42.624;26.276;2023-12-28T10:25:50;100862.94;;;17.30;43.32
74958;BME280;63741;42.624;26.276;2023-12-28T10:28:19;100850.63;;;17.18;43.89
74958;BME280;63741;42.624;26.276;2023-12-28T10:30:46;100849.91;;;17.37;42.79
74958;BME280;63741;42.624;26.276;2023-12-28T10:33:14;100848.25;;;17.15;43.47
74958;BME280;63741;42.624;26.276;2023-12-28T10:35:43;100841.72;;;17.59;42.41
74958;BME280;63741;42.624;26.276;2023-12-28T10:38:13;100835.81;;;17.65;42.46
74958;BME280;63741;42.624;26.276;2023-12-28T10:40:44;100830.94;;;17.80;41.42
74958;BME280;63741;42.624;26.276;2023-12-28T10:43:15;100826.06;;;17.24;42.10
74958;BME280;63741;42.624;26.276;2023-12-28T10:45:47;100827.09;;;17.33;43.15
74958;BME280;63741;42.624;26.276;2023-12-28T10:48:21;100817.22;;;17.33;42.32
74958;BME280;63741;42.624;26.276;2023-12-28T10:50:52;100808.72;;;17.59;41.53
74958;BME280;63741;42.624;26.276;2023-12-28T10:53:58;100806.75;;;17.91;41.55
74958;BME280;63741;42.624;26.276;2023-12-28T10:56:41;100800.34;;;17.73;40.85
74958;BME280;63741;42.624;26.276;2023-12-28T10:59:32;100802.41;;;18.10;40.30
74958;BME280;63741;42.624;26.276;2023-12-28T11:02:02;100789.88;;;18.01;39.88
74958;BME280;63741;42.624;26.276;2023-12-28T11:04:48;100794.38;;;17.60;40.86
74958;BME280;63741;42.624;26.276;2023-12-28T11:07:18;100777.59;;;17.98;40.49
74958;BME280;63741;42.624;26.276;2023-12-28T11:09:46;100782.84;;;18.19;40.23
74958;BME280;63741;42.624;26.276;2023-12-28T11:12:16;100782.84;;;18.09;39.72
74958;BME280;63741;42.624;26.276;2023-12-28T11:14:45;100776.47;;;17.91;40.41
74958;BME280;63741;42.624;26.276;2023-12-28T11:17:15;100768.03;;;18.15;40.08
74958;BME280;63741;42.624;26.276;2023-12-28T11:19:43;100764.75;;;17.82;40.16
74958;BME280;63741;42.624;26.276;2023-12-28T11:22:10;100763.41;;;18.27;39.58
74958;BME280;63741;42.624;26.276;2023-12-28T11:24:38;100774.25;;;18.44;38.92
74958;BME280;63741;42.624;26.276;2023-12-28T11:27:05;100767.19;;;18.05;39.99
74958;BME280;63741;42.624;26.276;2023-12-28T11:29:37;100752.53;;;17.59;41.27
74958;BME280;63741;42.624;26.276;2023-12-28T11:32:04;100760.81;;;17.86;41.00
74958;BME280;63741;42.624;26.276;2023-12-28T11:34:32;100749.72;;;18.01;40.06
74958;BME280;63741;42.624;26.276;2023-12-28T11:37:04;100755.31;;;18.56;39.90
74958;BME280;63741;42.624;26.276;2023-12-28T11:39:35;100753.38;;;18.19;39.18
74958;BME280;63741;42.624;26.276;2023-12-28T11:42:04;100748.72;;;18.21;39.83
74958;BME280;63741;42.624;26.276;2023-12-28T11:44:37;100745.88;;;17.74;39.76
74958;BME280;63741;42.624;26.276;2023-12-28T11:47:13;100744.22;;;18.12;39.75
74958;BME280;63741;42.624;26.276;2023-12-28T11:49:40;100734.34;;;18.12;39.97
74958;BME280;63741;42.624;26.276;2023-12-28T11:52:09;100734.06;;;18.25;39.64
74958;BME280;63741;42.624;26.276;2023-12-28T11:54:38;100731.25;;;18.36;38.62
74958;BME280;63741;42.624;26.276;2023-12-28T11:57:04;100738.28;;;17.89;39.20
74958;BME280;63741;42.624;26.276;2023-12-28T11:59:32;100735.75;;;18.07;40.05
74958;BME280;63741;42.624;26.276;2023-12-28T12:01:59;100731.25;;;17.98;39.59
74958;BME280;63741;42.624;26.276;2023-12-28T12:04:26;100727.28;;;18.02;39.05
74958;BME280;63741;42.624;26.276;2023-12-28T12:06:53;100724.91;;;18.18;39.37
74958;BME280;63741;42.624;26.276;2023-12-28T12:09:20;100734.06;;;18.25;38.42
74958;BME280;63741;42.624;26.276;2023-12-28T12:11:51;100729.97;;;18.40;38.38
74958;BME280;63741;42.624;26.276;2023-12-28T12:14:19;100727.59;;;18.28;39.04
74958;BME280;63741;42.624;26.276;2023-12-28T12:16:46;100727.16;;;17.93;39.20
74958;BME280;63741;42.624;26.276;2023-12-28T12:19:15;100714.34;;;17.87;39.25
74958;BME280;63741;42.624;26.276;2023-12-28T12:21:42;100711.66;;;18.26;38.77
74958;BME280;63741;42.624;26.276;2023-12-28T12:24:09;100708.41;;;18.23;38.92
74958;BME280;63741;42.624;26.276;2023-12-28T12:26:36;100707.13;;;18.07;39.53
74958;BME280;63741;42.624;26.276;2023-12-28T12:29:03;100703.06;;;18.23;39.60
74958;BME280;63741;42.624;26.276;2023-12-28T12:31:30;100701.63;;;17.99;39.91
74958;BME280;63741;42.624;26.276;2023-12-28T12:33:58;100696.59;;;17.96;39.60
74958;BME280;63741;42.624;26.276;2023-12-28T12:36:25;100694.28;;;18.30;39.36
74958;BME280;63741;42.624;26.276;2023-12-28T12:38:52;100695.03;;;18.13;39.63
74958;BME280;63741;42.624;26.276;2023-12-28T12:41:19;100690.09;;;18.18;39.83
74958;BME280;63741;42.624;26.276;2023-12-28T12:43:46;100682.28;;;18.54;38.87
74958;BME280;63741;42.624;26.276;2023-12-28T12:46:13;100686.09;;;18.51;38.83
74958;BME280;63741;42.624;26.276;2023-12-28T12:48:41;100688.63;;;18.53;39.31
74958;BME280;63741;42.624;26.276;2023-12-28T12:51:08;100689.25;;;18.27;39.56
74958;BME280;63741;42.624;26.276;2023-12-28T12:53:36;100691.50;;;18.12;39.73
74958;BME280;63741;42.624;26.276;2023-12-28T12:56:06;100691.78;;;18.29;39.24